createdAt,value
2022-11-24T00:01:32.072Z,98418.83
2022-11-24T00:04:05.570Z,98414.30
2022-11-24T00:06:36.201Z,98412.52
2022-11-24T00:09:05.635Z,98411.27
2022-11-24T00:11:36.849Z,98411.09
2022-11-24T00:14:06.458Z,98414.92
2022-11-24T00:16:37.238Z,98411.66
2022-11-24T00:19:11.429Z,98417.15
2022-11-24T00:21:41.933Z,98416.98
2022-11-24T00:24:10.517Z,98415.95
2022-11-24T00:26:39.001Z,98416.42
2022-11-24T00:29:08.099Z,98416.41
2022-11-24T00:31:41.692Z,98417.60
2022-11-24T00:34:14.784Z,98418.13
2022-11-24T00:36:43.832Z,98424.39
2022-11-24T00:39:14.409Z,98426.96
2022-11-24T00:41:43.305Z,98428.51
2022-11-24T00:44:11.680Z,98427.64
2022-11-24T00:46:40.392Z,98427.48
2022-11-24T00:49:09.455Z,98429.70
2022-11-24T00:51:37.730Z,98424.33
2022-11-24T00:54:07.032Z,98426.15
2022-11-24T00:56:35.306Z,98427.17
2022-11-24T00:59:04.441Z,98424.13
2022-11-24T01:01:32.666Z,98426.36
2022-11-24T01:04:02.083Z,98425.31
2022-11-24T01:06:31.596Z,98428.77
2022-11-24T01:09:00.170Z,98431.02
2022-11-24T01:11:54.454Z,98431.17
2022-11-24T01:14:25.290Z,98432.55
2022-11-24T01:16:54.605Z,98433.36
2022-11-24T01:19:23.488Z,98437.15
2022-11-24T01:21:51.758Z,98436.68
2022-11-24T01:24:20.134Z,98438.23
2022-11-24T01:26:48.410Z,98443.54
2022-11-24T01:29:16.686Z,98440.93
2022-11-24T01:31:44.965Z,98437.98
2022-11-24T01:34:13.855Z,98440.16
2022-11-24T01:36:42.130Z,98436.19
2022-11-24T01:39:10.721Z,98435.61
2022-11-24T01:41:38.987Z,98436.80
2022-11-24T01:44:28.360Z,98436.17
2022-11-24T01:47:08.718Z,98435.98
2022-11-24T01:49:45.186Z,98440.60
2022-11-24T01:52:22.064Z,98442.17
2022-11-24T01:54:56.279Z,98446.61
2022-11-24T01:57:39.094Z,98448.80
2022-11-24T02:00:10.849Z,98451.63
2022-11-24T02:02:45.049Z,98455.72
2022-11-24T02:05:22.151Z,98461.46
2022-11-24T02:07:53.151Z,98462.52
2022-11-24T02:10:22.285Z,98461.33
2022-11-24T02:12:55.168Z,98461.73
2022-11-24T02:15:23.769Z,98462.06
2022-11-24T02:17:52.131Z,98464.30
2022-11-24T02:20:20.509Z,98462.38
2022-11-24T02:23:03.632Z,98457.04
2022-11-24T02:25:47.678Z,98452.86
2022-11-24T02:28:19.744Z,98459.61
2022-11-24T02:30:49.417Z,98460.80
2022-11-24T02:33:18.754Z,98464.40
2022-11-24T02:35:47.034Z,98457.88
2022-11-24T02:38:15.407Z,98462.58
2022-11-24T02:40:47.472Z,98459.17
2022-11-24T02:43:23.841Z,98461.48
2022-11-24T02:45:52.170Z,98462.19
2022-11-24T02:48:20.528Z,98465.55
2022-11-24T02:50:48.769Z,98471.55
2022-11-24T02:53:17.148Z,98471.56
2022-11-24T02:55:45.527Z,98476.98
2022-11-24T02:58:15.337Z,98480.14
2022-11-24T03:00:43.715Z,98476.54
2022-11-24T03:03:12.281Z,98477.86
2022-11-24T03:05:41.088Z,98478.35
2022-11-24T03:08:09.364Z,98480.75
2022-11-24T03:10:37.638Z,98483.80
2022-11-24T03:13:06.268Z,98486.17
2022-11-24T03:15:35.044Z,98490.05
2022-11-24T03:18:03.593Z,98492.44
2022-11-24T03:20:31.869Z,98492.98
2022-11-24T03:23:00.143Z,98492.28
2022-11-24T03:25:28.420Z,98493.48
2022-11-24T03:27:58.521Z,98495.31
2022-11-24T03:30:26.814Z,98496.10
2022-11-24T03:32:55.091Z,98492.45
2022-11-24T03:35:24.085Z,98492.96
2022-11-24T03:37:52.361Z,98493.52
2022-11-24T03:40:20.641Z,98494.23
2022-11-24T03:42:49.019Z,98492.93
2022-11-24T03:45:44.194Z,98495.61
2022-11-24T03:48:06.711Z,98497.60
2022-11-24T03:50:34.946Z,98496.64
2022-11-24T03:53:03.216Z,98497.98
2022-11-24T03:55:31.489Z,98499.00
2022-11-24T03:57:59.970Z,98498.81
2022-11-24T04:00:28.593Z,98499.31
2022-11-24T04:02:56.846Z,98502.59
2022-11-24T04:05:25.721Z,98504.04
2022-11-24T04:07:57.893Z,98506.42
2022-11-24T04:10:26.163Z,98508.22
2022-11-24T04:12:54.747Z,98510.33
2022-11-24T04:15:23.022Z,98511.95
2022-11-24T04:17:51.503Z,98515.45
2022-11-24T04:20:20.393Z,98515.02
2022-11-24T04:22:50.932Z,98516.93
2022-11-24T04:25:19.300Z,98518.81
2022-11-24T04:27:52.272Z,98520.00
2022-11-24T04:30:21.528Z,98526.66
2022-11-24T04:32:50.067Z,98527.72
2022-11-24T04:35:19.060Z,98531.45
2022-11-24T04:37:47.950Z,98533.66
2022-11-24T04:40:17.028Z,98530.78
2022-11-24T04:42:53.818Z,98534.70
2022-11-24T04:45:23.634Z,98537.26
2022-11-24T04:47:52.118Z,98539.89
2022-11-24T04:50:21.105Z,98540.93
2022-11-24T04:52:49.391Z,98541.47
2022-11-24T04:55:17.766Z,98537.50
2022-11-24T04:57:46.038Z,98537.46
2022-11-24T05:00:15.037Z,98540.91
2022-11-24T05:02:43.407Z,98545.39
2022-11-24T05:05:11.890Z,98543.23
2022-11-24T05:07:40.250Z,98544.57
2022-11-24T05:10:28.095Z,98545.75
2022-11-24T05:12:59.620Z,98547.09
2022-11-24T05:15:28.335Z,98547.24
2022-11-24T05:17:57.349Z,98547.95
2022-11-24T05:20:25.607Z,98545.55
2022-11-24T05:22:53.775Z,98545.19
2022-11-24T05:25:21.950Z,98544.32
2022-11-24T05:27:50.328Z,98543.77
2022-11-24T05:30:18.602Z,98548.02
2022-11-24T05:32:46.776Z,98552.27
2022-11-24T05:35:15.361Z,98552.66
2022-11-24T05:37:43.534Z,98552.32
2022-11-24T05:40:11.707Z,98556.41
2022-11-24T05:42:47.057Z,98556.75
2022-11-24T05:45:19.626Z,98553.55
2022-11-24T05:47:50.055Z,98562.20
2022-11-24T05:50:20.580Z,98563.73
2022-11-24T05:52:49.615Z,98569.04
2022-11-24T05:55:19.793Z,98572.92
2022-11-24T05:57:48.062Z,98575.98
2022-11-24T06:00:18.303Z,98573.13
2022-11-24T06:02:46.535Z,98582.20
2022-11-24T06:05:15.041Z,98583.05
2022-11-24T06:07:43.407Z,98583.80
2022-11-24T06:10:11.900Z,98586.75
2022-11-24T06:12:39.970Z,98591.44
2022-11-24T06:15:09.397Z,98594.33
2022-11-24T06:17:38.879Z,98593.13
2022-11-24T06:20:08.587Z,98596.39
2022-11-24T06:22:37.786Z,98597.88
2022-11-24T06:25:06.771Z,98599.66
2022-11-24T06:27:34.848Z,98600.15
2022-11-24T06:30:04.148Z,98597.58
2022-11-24T06:32:32.426Z,98600.21
2022-11-24T06:35:00.600Z,98599.98
2022-11-24T06:37:28.982Z,98599.16
2022-11-24T06:39:57.356Z,98604.64
2022-11-24T06:42:25.529Z,98605.44
2022-11-24T06:44:53.908Z,98609.10
2022-11-24T06:47:22.284Z,98610.34
2022-11-24T06:49:50.563Z,98615.70
2022-11-24T06:52:18.735Z,98621.02
2022-11-24T06:54:46.911Z,98627.33
2022-11-24T06:57:14.981Z,98631.71
2022-11-24T06:59:43.359Z,98629.59
2022-11-24T07:02:11.538Z,98633.17
2022-11-24T07:04:39.705Z,98632.95
2022-11-24T07:07:07.973Z,98634.18
2022-11-24T07:09:36.359Z,98634.20
2022-11-24T07:12:06.078Z,98636.46
2022-11-24T07:14:34.368Z,98643.91
2022-11-24T07:17:04.874Z,98644.08
2022-11-24T07:19:33.258Z,98647.19
2022-11-24T07:22:01.429Z,98647.83
2022-11-24T07:24:29.600Z,98651.67
2022-11-24T07:26:57.671Z,98654.14
2022-11-24T07:29:25.843Z,98655.63
2022-11-24T07:31:54.151Z,98658.30
2022-11-24T07:34:22.399Z,98654.10
2022-11-24T07:36:50.569Z,98655.67
2022-11-24T07:39:18.681Z,98657.98
2022-11-24T07:41:46.815Z,98655.27
2022-11-24T07:44:14.887Z,98657.19
2022-11-24T07:46:43.059Z,98655.13
2022-11-24T07:49:11.243Z,98657.82
2022-11-24T07:51:39.307Z,98656.88
2022-11-24T07:54:07.477Z,98657.47
2022-11-24T07:56:35.752Z,98657.45
2022-11-24T07:59:04.313Z,98661.23
2022-11-24T08:01:32.643Z,98657.58
2022-11-24T08:04:02.277Z,98658.50
2022-11-24T08:06:39.394Z,98660.43
2022-11-24T08:09:09.011Z,98658.26
2022-11-24T08:11:37.082Z,98662.65
2022-11-24T08:14:05.460Z,98664.15
2022-11-24T08:16:33.949Z,98665.76
2022-11-24T08:19:02.114Z,98668.90
2022-11-24T08:21:30.289Z,98668.46
2022-11-24T08:23:58.786Z,98671.48
2022-11-24T08:26:27.265Z,98676.83
2022-11-24T08:28:59.831Z,98678.17
2022-11-24T08:31:34.027Z,98675.84
2022-11-24T08:34:04.162Z,98677.58
2022-11-24T08:36:33.563Z,98675.80
2022-11-24T08:39:02.589Z,98681.16
2022-11-24T08:41:31.762Z,98681.98
2022-11-24T08:43:59.928Z,98684.25
2022-11-24T08:46:28.371Z,98682.34
2022-11-24T08:48:56.992Z,98682.42
2022-11-24T08:51:27.030Z,98680.14
2022-11-24T08:54:00.198Z,98679.55
2022-11-24T08:56:30.830Z,98686.11
2022-11-24T08:58:59.757Z,98686.17
2022-11-24T09:01:29.338Z,98688.05
2022-11-24T09:03:58.135Z,98684.27
2022-11-24T09:06:31.066Z,98686.31
2022-11-24T09:09:00.171Z,98683.08
2022-11-24T09:11:28.882Z,98687.10
2022-11-24T09:13:56.954Z,98685.83
2022-11-24T09:16:28.082Z,98682.52
2022-11-24T09:19:05.075Z,98686.48
2022-11-24T09:21:37.864Z,98685.96
2022-11-24T09:24:07.538Z,98689.93
2022-11-24T09:26:40.621Z,98688.52
2022-11-24T09:29:12.818Z,98688.83
2022-11-24T09:31:41.204Z,98696.30
2022-11-24T09:34:13.676Z,98694.87
2022-11-24T09:36:42.525Z,98697.20
2022-11-24T09:39:11.542Z,98699.30
2022-11-24T09:41:44.446Z,98699.14
2022-11-24T09:44:33.814Z,98695.11
2022-11-24T09:47:20.729Z,98697.61
2022-11-24T09:50:05.387Z,98698.97
2022-11-24T09:52:41.959Z,98698.64
2022-11-24T09:55:37.062Z,98698.89
2022-11-24T09:58:45.478Z,98703.48
2022-11-24T10:01:20.050Z,98697.69
2022-11-24T10:03:51.149Z,98700.58
2022-11-24T10:06:34.799Z,98701.02
2022-11-24T10:09:30.705Z,98704.59
2022-11-24T10:12:36.850Z,98704.79
2022-11-24T10:15:21.836Z,98699.33
2022-11-24T10:18:13.273Z,98702.20
2022-11-24T10:21:18.192Z,98696.09
2022-11-24T10:23:58.551Z,98697.31
2022-11-24T10:26:36.553Z,98699.34
2022-11-24T10:29:38.010Z,98696.38
2022-11-24T10:32:16.313Z,98698.52
2022-11-24T10:34:52.173Z,98699.83
2022-11-24T10:37:26.694Z,98700.78
2022-11-24T10:40:00.385Z,98702.08
2022-11-24T10:42:32.154Z,98701.20
2022-11-24T10:45:22.651Z,98703.45
2022-11-24T10:47:51.030Z,98702.84
2022-11-24T10:50:28.112Z,98706.63
2022-11-24T10:53:05.707Z,98709.89
2022-11-24T10:55:58.566Z,98709.52
2022-11-24T10:58:28.075Z,98710.77
2022-11-24T11:01:01.070Z,98715.10
2022-11-24T11:03:33.360Z,98711.23
2022-11-24T11:06:25.863Z,98712.56
2022-11-24T11:09:09.400Z,98714.42
2022-11-24T11:11:39.518Z,98714.14
2022-11-24T11:14:11.126Z,98713.48
2022-11-24T11:16:53.275Z,98712.80
2022-11-24T11:19:54.376Z,98708.68
2022-11-24T11:22:28.842Z,98710.34
2022-11-24T11:25:14.829Z,98708.16
2022-11-24T11:27:43.313Z,98704.39
2022-11-24T11:36:12.010Z,98704.00
2022-11-24T11:38:41.848Z,98707.58
2022-11-24T11:41:22.208Z,98704.66
2022-11-24T11:43:59.085Z,98708.44
2022-11-24T11:46:31.534Z,98709.35
2022-11-24T11:49:00.450Z,98710.38
2022-11-24T11:55:05.716Z,98714.92
2022-11-24T11:57:47.095Z,98710.83
2022-11-24T12:00:22.102Z,98708.70
2022-11-24T12:02:56.484Z,98710.73
2022-11-24T12:05:43.772Z,98708.44
2022-11-24T12:09:18.795Z,98711.38
2022-11-24T12:12:11.356Z,98712.07
2022-11-24T12:15:05.949Z,98711.48
2022-11-24T12:18:21.643Z,98719.98
2022-11-24T12:21:06.809Z,98717.69
2022-11-24T12:23:59.352Z,98718.58
2022-11-24T12:26:49.339Z,98717.98
2022-11-24T12:29:39.424Z,98718.52
2022-11-24T12:32:33.406Z,98719.77
2022-11-24T12:35:19.599Z,98715.45
2022-11-24T12:38:12.043Z,98710.84
2022-11-24T12:41:18.357Z,98714.20
2022-11-24T12:43:56.617Z,98713.82
2022-11-24T12:47:03.014Z,98717.02
2022-11-24T12:49:40.102Z,98721.95
2022-11-24T12:52:31.897Z,98726.40
2022-11-24T12:55:01.814Z,98723.38
2022-11-24T12:58:10.795Z,98724.16
2022-11-24T13:01:16.224Z,98722.11
2022-11-24T13:04:04.228Z,98728.11
2022-11-24T13:06:49.023Z,98726.44
2022-11-24T13:09:17.983Z,98725.85
2022-11-24T13:12:14.047Z,98727.39
2022-11-24T13:14:44.947Z,98730.02
2022-11-24T13:17:42.044Z,98737.04
2022-11-24T13:20:19.508Z,98738.34
2022-11-24T13:22:57.190Z,98737.22
2022-11-24T13:25:29.018Z,98739.80
2022-11-24T13:28:00.396Z,98741.42
2022-11-24T13:30:34.815Z,98739.11
2022-11-24T13:33:16.400Z,98742.85
2022-11-24T13:36:11.917Z,98746.46
2022-11-24T13:38:45.834Z,98750.27
2022-11-24T13:41:32.404Z,98752.83
2022-11-24T13:44:16.348Z,98753.66
2022-11-24T13:47:32.574Z,98750.39
2022-11-24T13:50:02.796Z,98752.10
2022-11-24T13:52:42.130Z,98752.41
2022-11-24T13:55:13.181Z,98752.92
2022-11-24T13:57:48.102Z,98759.09
2022-11-24T14:00:35.632Z,98762.10
2022-11-24T14:03:26.795Z,98764.92
2022-11-24T14:05:54.981Z,98771.30
2022-11-24T14:08:28.927Z,98777.61
2022-11-24T14:10:59.040Z,98778.52
2022-11-24T14:13:28.140Z,98780.56
2022-11-24T14:16:06.392Z,98782.99
2022-11-24T14:18:36.366Z,98786.29
2022-11-24T14:21:42.735Z,98787.30
2022-11-24T14:24:42.789Z,98793.10
2022-11-24T14:27:17.587Z,98794.99
2022-11-24T14:29:54.667Z,98799.63
2022-11-24T14:32:23.455Z,98804.98
2022-11-24T14:34:52.336Z,98807.75
2022-11-24T14:37:20.938Z,98811.29
2022-11-24T14:39:49.311Z,98813.84
2022-11-24T14:42:25.473Z,98816.61
2022-11-24T14:45:00.198Z,98821.63
2022-11-24T14:47:37.379Z,98825.77
2022-11-24T14:50:23.203Z,98831.58
2022-11-24T14:52:59.225Z,98830.86
2022-11-24T14:55:32.628Z,98832.92
2022-11-24T14:58:00.896Z,98838.27
2022-11-24T15:00:31.803Z,98843.08
2022-11-24T15:03:06.048Z,98842.42
2022-11-24T15:06:03.817Z,98844.95
2022-11-24T15:08:43.049Z,98848.04
2022-11-24T15:11:11.325Z,98849.92
2022-11-24T15:13:39.908Z,98851.67
2022-11-24T15:16:16.141Z,98851.34
2022-11-24T15:18:47.417Z,98853.30
2022-11-24T15:21:19.466Z,98861.45
2022-11-24T15:24:16.292Z,98868.52
2022-11-24T15:26:45.428Z,98864.92
2022-11-24T15:29:13.699Z,98876.49
2022-11-24T15:31:47.741Z,98877.62
2022-11-24T15:34:19.161Z,98882.45
2022-11-24T15:36:47.229Z,98885.56
2022-11-24T15:39:15.304Z,98890.55
2022-11-24T15:41:43.478Z,98890.42
2022-11-24T15:44:11.648Z,98890.05
2022-11-24T15:46:40.292Z,98894.98
2022-11-24T15:49:08.609Z,98897.98
2022-11-24T15:51:42.722Z,98900.39
2022-11-24T15:54:16.120Z,98906.52
2022-11-24T15:56:44.709Z,98909.80
2022-11-24T15:59:20.363Z,98909.64
2022-11-24T16:01:50.924Z,98916.02
2022-11-24T16:04:19.167Z,98914.73
2022-11-24T16:06:48.149Z,98916.92
2022-11-24T16:09:17.455Z,98915.95
2022-11-24T16:11:45.624Z,98921.89
2022-11-24T16:14:14.027Z,98922.73
2022-11-24T16:16:42.510Z,98928.23
2022-11-24T16:19:11.466Z,98928.29
2022-11-24T16:21:39.545Z,98931.56
2022-11-24T16:24:08.008Z,98934.46
2022-11-24T16:26:36.097Z,98936.38
2022-11-24T16:29:04.782Z,98935.14
2022-11-24T16:31:33.127Z,98935.84
2022-11-24T16:34:01.516Z,98937.41
2022-11-24T16:36:29.925Z,98945.70
2022-11-24T16:39:00.088Z,98944.86
2022-11-24T16:41:28.315Z,98948.32
2022-11-24T16:43:56.897Z,98947.54
2022-11-24T16:46:25.539Z,98949.79
2022-11-24T16:48:59.769Z,98954.31
2022-11-24T16:51:34.212Z,98958.95
2022-11-24T16:54:04.014Z,98960.31
2022-11-24T16:56:32.418Z,98960.13
2022-11-24T16:59:00.582Z,98963.38
2022-11-24T17:01:30.253Z,98968.06
2022-11-24T17:03:59.267Z,98965.07
2022-11-24T17:06:28.151Z,98968.84
2022-11-24T17:08:56.347Z,98970.11
2022-11-24T17:11:26.568Z,98973.16
2022-11-24T17:13:56.790Z,98975.39
2022-11-24T17:16:26.165Z,98975.99
2022-11-24T17:18:54.775Z,98978.02
2022-11-24T17:21:25.100Z,98981.61
2022-11-24T17:23:58.810Z,98985.90
2022-11-24T17:26:27.799Z,98989.81
2022-11-24T17:28:56.481Z,98993.77
2022-11-24T17:31:32.300Z,98996.98
2022-11-24T17:34:01.612Z,99001.30
2022-11-24T17:36:32.235Z,99002.38
2022-11-24T17:39:01.566Z,99003.05
2022-11-24T17:41:30.252Z,99006.23
2022-11-24T17:43:58.628Z,99009.73
2022-11-24T17:46:28.688Z,99011.23
2022-11-24T17:48:57.845Z,99013.73
2022-11-24T17:51:27.145Z,99015.88
2022-11-24T17:53:57.376Z,99019.30
2022-11-24T17:56:27.596Z,99022.73
2022-11-24T17:58:58.631Z,99025.82
2022-11-24T18:01:30.223Z,99027.35
2022-11-24T18:03:58.772Z,99027.16
2022-11-24T18:06:28.925Z,99031.95
2022-11-24T18:08:59.224Z,99033.15
2022-11-24T18:11:32.314Z,99036.06
2022-11-24T18:14:03.615Z,99035.98
2022-11-24T18:16:34.705Z,99039.02
2022-11-24T18:19:10.673Z,99040.21
2022-11-24T18:21:41.473Z,99041.14
2022-11-24T18:24:11.826Z,99042.36
2022-11-24T18:26:41.092Z,99047.41
2022-11-24T18:29:10.808Z,99046.68
2022-11-24T18:31:39.579Z,99050.52
2022-11-24T18:34:08.552Z,99048.95
2022-11-24T18:36:37.072Z,99051.73
2022-11-24T18:39:09.217Z,99050.77
2022-11-24T18:41:37.313Z,99051.23
2022-11-24T18:44:08.617Z,99057.03
2022-11-24T18:46:38.251Z,99058.02
2022-11-24T18:49:07.494Z,99057.03
2022-11-24T18:51:36.057Z,99061.46
2022-11-24T18:54:05.645Z,99064.01
2022-11-24T18:56:34.032Z,99059.50
2022-11-24T18:59:02.205Z,99058.51
2022-11-24T19:01:30.945Z,99065.81
2022-11-24T19:04:02.245Z,99067.39
2022-11-24T19:06:32.925Z,99070.10
2022-11-24T19:09:05.854Z,99074.98
2022-11-24T19:11:37.286Z,99074.80
2022-11-24T19:14:08.348Z,99079.64
2022-11-24T19:16:37.451Z,99081.08
2022-11-24T19:19:06.366Z,99081.29
2022-11-24T19:21:37.359Z,99085.50
2022-11-24T19:24:13.536Z,99091.91
2022-11-24T19:26:42.028Z,99094.02
2022-11-24T19:29:10.601Z,99096.42
2022-11-24T19:31:44.260Z,99099.80
2022-11-24T19:34:12.885Z,99102.98
2022-11-24T19:36:43.417Z,99106.11
2022-11-24T19:39:16.712Z,99105.14
2022-11-24T19:41:45.186Z,99111.58
2022-11-24T19:44:13.772Z,99113.14
2022-11-24T19:46:41.843Z,99117.69
2022-11-24T19:49:10.219Z,99113.90
2022-11-24T19:51:40.043Z,99120.84
2022-11-24T19:54:12.921Z,99120.91
2022-11-24T19:56:42.216Z,99122.20
2022-11-24T19:59:13.565Z,99125.49
2022-11-24T20:01:42.791Z,99126.13
2022-11-24T20:04:13.809Z,99127.30
2022-11-24T20:06:44.230Z,99130.55
2022-11-24T20:09:15.271Z,99135.45
2022-11-24T20:11:44.144Z,99137.92
2022-11-24T20:14:14.887Z,99140.61
2022-11-24T20:16:45.635Z,99143.60
2022-11-24T20:19:16.567Z,99148.66
2022-11-24T20:21:48.195Z,99150.92
2022-11-24T20:24:18.236Z,99156.34
2022-11-24T20:26:58.390Z,99160.73
2022-11-24T20:29:28.611Z,99162.84
2022-11-24T20:31:57.379Z,99164.93
2022-11-24T20:34:26.598Z,99169.30
2022-11-24T20:36:54.773Z,99167.91
2022-11-24T20:39:26.524Z,99172.39
2022-11-24T20:41:55.565Z,99172.80
2022-11-24T20:44:26.781Z,99178.88
2022-11-24T20:46:57.024Z,99177.93
2022-11-24T20:49:26.698Z,99183.30
2022-11-24T20:51:57.550Z,99186.52
2022-11-24T20:54:26.426Z,99186.59
2022-11-24T20:56:54.905Z,99187.73
2022-11-24T20:59:24.852Z,99191.83
2022-11-24T21:01:55.688Z,99196.89
2022-11-24T21:04:26.493Z,99195.02
2022-11-24T21:06:55.381Z,99199.16
2022-11-24T21:09:24.895Z,99201.16
2022-11-24T21:11:55.006Z,99203.98
2022-11-24T21:14:24.728Z,99206.05
2022-11-24T21:16:53.237Z,99211.80
2022-11-24T21:19:21.443Z,99215.10
2022-11-24T21:21:53.475Z,99211.81
2022-11-24T21:24:33.593Z,99214.44
2022-11-24T21:27:02.948Z,99213.05
2022-11-24T21:29:31.166Z,99211.51
2022-11-24T21:31:59.882Z,99216.68
2022-11-24T21:34:28.031Z,99218.18
2022-11-24T21:36:56.197Z,99221.70
2022-11-24T21:39:24.401Z,99225.48
2022-11-24T21:41:53.010Z,99228.73
2022-11-24T21:44:23.959Z,99231.96
2022-11-24T21:46:56.322Z,99232.98
2022-11-24T21:49:26.071Z,99234.61
2022-11-24T21:51:57.062Z,99236.68
2022-11-24T21:54:26.724Z,99237.95
2022-11-24T21:56:58.789Z,99241.52
2022-11-24T21:59:26.962Z,99246.42
2022-11-24T22:01:55.275Z,99249.79
2022-11-24T22:04:23.526Z,99245.50
2022-11-24T22:06:53.634Z,99248.42
2022-11-24T22:09:21.704Z,99250.61
2022-11-24T22:11:49.980Z,99253.35
2022-11-24T22:14:18.785Z,99250.70
2022-11-24T22:16:47.041Z,99255.31
2022-11-24T22:19:15.326Z,99254.84
2022-11-24T22:21:43.495Z,99260.85
2022-11-24T22:24:11.980Z,99260.67
2022-11-24T22:26:40.149Z,99264.33
2022-11-24T22:29:08.611Z,99263.97
2022-11-24T22:31:36.800Z,99265.04
2022-11-24T22:34:05.080Z,99267.16
2022-11-24T22:36:33.460Z,99263.66
2022-11-24T22:39:03.653Z,99264.04
2022-11-24T22:41:34.104Z,99264.14
2022-11-24T22:44:02.590Z,99268.08
2022-11-24T22:46:32.085Z,99269.48
2022-11-24T22:49:01.812Z,99269.64
2022-11-24T22:51:33.256Z,99268.89
2022-11-24T22:54:03.676Z,99269.50
2022-11-24T22:56:33.493Z,99273.59
2022-11-24T22:59:02.573Z,99269.47
2022-11-24T23:01:33.901Z,99270.75
2022-11-24T23:04:04.083Z,99273.31
2022-11-24T23:06:33.662Z,99275.16
2022-11-24T23:09:04.187Z,99277.43
2022-11-24T23:11:38.210Z,99284.41
2022-11-24T23:14:15.828Z,99284.07
2022-11-24T23:16:44.382Z,99291.01
2022-11-24T23:19:12.650Z,99290.96
2022-11-24T23:21:40.722Z,99292.91
2022-11-24T23:24:10.657Z,99296.41
2022-11-24T23:26:40.861Z,99299.98
2022-11-24T23:29:10.811Z,99301.38
2022-11-24T23:31:42.254Z,99303.96
2022-11-24T23:34:10.508Z,99299.79
2022-11-24T23:36:38.977Z,99301.05
2022-11-24T23:39:09.306Z,99300.77
2022-11-24T23:41:37.789Z,99300.41
2022-11-24T23:44:07.078Z,99308.77
2022-11-24T23:46:35.671Z,99308.21
2022-11-24T23:49:04.045Z,99306.10
2022-11-24T23:51:33.754Z,99307.59
2022-11-24T23:56:47.306Z,99311.00
2022-11-24T23:59:17.528Z,99313.77
